GMTT/TNG METAR and TAF weather

Enter ICAO airport designator
Station Type Date Time Source
GMTT METAR 2020/03/28 21:30 UTC NOAA

GMTT 282130Z 08009KT CAVOK 13/10 Q1018 NOSIG


Station Type Date Time Source
GMTT Decoded METAR 2020/03/28 21:30 UTC NOAA

Tanger Aerodrome , Morocco (GMTT) 35-44N 005-54W 21M
Mar 28, 2020 - 05:30 PM EDT / 2020.03.28 2130 UTC
Wind: from the E (080 degrees) at 10 MPH (9 KT):0
Visibility: greater than 7 mile(s):0
Temperature: 55 F (13 C)
Dew Point: 50 F (10 C)
Relative Humidity: 81%
Pressure (altimeter): 30.06 in. Hg (1018 hPa)
ob: GMTT 282130Z 08009KT CAVOK 13/10 Q1018 NOSIG
cycle: 21

Station Type Date Time Source
GMTT TAF 2020/03/28 18:18 UTC NOAA

TAF GMTT 281700Z 2818/2924 07013KT 9999 SCT023 BKN030

Example: see airport list